Etusivu
METAR-TAF:

METAR-TAF

Lentoasemat :

Fayetteville, Tennessee, Yhdysvallat

Leveyspiiri: 35-03-35N, Pituuspiiri: 086-33-50W, korkeus merenpinnasta: 300 m

Tämänhetkinen sää

Tämä raportti tehtiin 27 minuuttia sitten, kello 23.15 UTC
Tuuli 9 kn etelästä/lounaasta
Lämpötila 17°C
Kosteus 88%
Ilmanpaine 1008 hPa
Näkyvyys: 16.1 km
Hajonneita pilviä 5500 ft:n korkeudessa
Hajonneita pilviä 6500 ft:n korkeudessa
Hajonneita pilviä 8000 ft:n korkeudessa

METAR: KFYM 252315Z AUTO 20009KT 10SM BKN055 BKN065 BKN080 17/15 A2976 RMK A01

Aika: 18:42 (23:42 UTC)


TAF: puuttuu

Säähavainnot ja -ennusteet yli 4000 lentoasemalta (METAR- ja TAF-raportit).

Käytössä olevat sääasemat on merkitty karttaan keltaisilla ja punaisilla pisteillä.

Aseta hiiri pisteen päälle nähdäksesi sääaseman nimen.

Klikkaa sitten nähdäksesi säähavainnot ja -ennusteet.

Kartan vaihtaminen: klikkaa mustalla rastilla varustettuja vihreitä pisteitä, niin voit zoomata sisään; viivalla varustettua vihreää pistettä, niin voit zoomata ulos tai vihreitä nuolia, niin pääset viereisille kartoille.


METAR-TAF: